sensor_id;sensor_type;location;lat;lon;timestamp;pressure;altitude;pressure_sealevel;temperature;humidity
6224;BME280;3145;42.726;23.342;2023-08-30T00:01:26;70695.97;;;-142.70;68.87
6224;BME280;3145;42.726;23.342;2023-08-30T00:03:53;70683.88;;;-142.70;68.94
6224;BME280;3145;42.726;23.342;2023-08-30T00:06:20;70673.81;;;-142.70;69.50
6224;BME280;3145;42.726;23.342;2023-08-30T00:08:45;70671.78;;;-142.70;68.73
6224;BME280;3145;42.726;23.342;2023-08-30T00:11:13;70675.81;;;-142.70;68.47
6224;BME280;3145;42.726;23.342;2023-08-30T00:13:40;70677.84;;;-142.70;68.39
6224;BME280;3145;42.726;23.342;2023-08-30T00:16:07;70675.81;;;-142.70;68.17
6224;BME280;3145;42.726;23.342;2023-08-30T00:18:34;70687.91;;;-142.70;67.60
6224;BME280;3145;42.726;23.342;2023-08-30T00:21:01;70695.97;;;-142.70;67.66
6224;BME280;3145;42.726;23.342;2023-08-30T00:23:27;70689.91;;;-142.70;67.81
6224;BME280;3145;42.726;23.342;2023-08-30T00:25:54;70683.88;;;-142.70;67.81
6224;BME280;3145;42.726;23.342;2023-08-30T00:28:22;70675.81;;;-142.70;67.17
6224;BME280;3145;42.726;23.342;2023-08-30T00:30:52;70679.84;;;-142.70;66.78
6224;BME280;3145;42.726;23.342;2023-08-30T00:33:20;70687.91;;;-142.70;66.22
6224;BME280;3145;42.726;23.342;2023-08-30T00:35:46;70691.94;;;-142.70;66.47
6224;BME280;3145;42.726;23.342;2023-08-30T00:38:13;70699.97;;;-142.70;66.70
6224;BME280;3145;42.726;23.342;2023-08-30T00:40:40;70699.97;;;-142.70;66.52
6224;BME280;3145;42.726;23.342;2023-08-30T00:43:08;70712.06;;;-142.70;65.29
6224;BME280;3145;42.726;23.342;2023-08-30T00:45:38;70720.13;;;-142.70;65.00
6224;BME280;3145;42.726;23.342;2023-08-30T00:48:06;70744.28;;;-142.70;65.45
6224;BME280;3145;42.726;23.342;2023-08-30T00:50:34;70754.34;;;-142.70;66.29
6224;BME280;3145;42.726;23.342;2023-08-30T00:53:00;70760.38;;;-142.70;66.67
6224;BME280;3145;42.726;23.342;2023-08-30T00:55:30;70756.34;;;-142.70;66.73
6224;BME280;3145;42.726;23.342;2023-08-30T00:57:58;70750.31;;;-142.70;67.25
6224;BME280;3145;42.726;23.342;2023-08-30T01:00:25;70744.28;;;-142.70;67.36
6224;BME280;3145;42.726;23.342;2023-08-30T01:02:54;70744.28;;;-142.70;67.44
6224;BME280;3145;42.726;23.342;2023-08-30T01:05:21;70736.22;;;-142.70;67.30
6224;BME280;3145;42.726;23.342;2023-08-30T01:07:48;70736.22;;;-142.70;67.08
6224;BME280;3145;42.726;23.342;2023-08-30T01:10:15;70738.25;;;-142.70;66.88
6224;BME280;3145;42.726;23.342;2023-08-30T01:12:44;70744.28;;;-142.70;66.05
6224;BME280;3145;42.726;23.342;2023-08-30T01:15:15;70760.38;;;-142.70;66.27
6224;BME280;3145;42.726;23.342;2023-08-30T01:17:47;70768.44;;;-142.70;65.97
6224;BME280;3145;42.726;23.342;2023-08-30T01:20:16;70772.47;;;-142.70;65.80
6224;BME280;3145;42.726;23.342;2023-08-30T01:22:47;70762.41;;;-142.70;65.53
6224;BME280;3145;42.726;23.342;2023-08-30T01:25:27;70752.34;;;-142.70;65.82
6224;BME280;3145;42.726;23.342;2023-08-30T01:28:01;70752.34;;;-142.70;65.26
6224;BME280;3145;42.726;23.342;2023-08-30T01:30:31;70784.56;;;-142.70;64.91
6224;BME280;3145;42.726;23.342;2023-08-30T01:32:59;70760.38;;;-142.70;65.01
6224;BME280;3145;42.726;23.342;2023-08-30T01:35:27;70748.31;;;-142.70;65.41
6224;BME280;3145;42.726;23.342;2023-08-30T01:37:58;70740.25;;;-142.70;65.69
6224;BME280;3145;42.726;23.342;2023-08-30T01:40:27;70740.25;;;-142.70;65.59
6224;BME280;3145;42.726;23.342;2023-08-30T01:42:55;70738.25;;;-142.70;65.24
6224;BME280;3145;42.726;23.342;2023-08-30T01:45:24;70738.25;;;-142.70;65.54
6224;BME280;3145;42.726;23.342;2023-08-30T01:47:51;70732.19;;;-142.70;65.06
6224;BME280;3145;42.726;23.342;2023-08-30T01:50:19;70734.22;;;-142.70;64.69
6224;BME280;3145;42.726;23.342;2023-08-30T01:52:46;70744.28;;;-142.70;64.98
6224;BME280;3145;42.726;23.342;2023-08-30T01:55:14;70752.34;;;-142.70;65.50
6224;BME280;3145;42.726;23.342;2023-08-30T01:57:41;70760.38;;;-142.70;65.29
6224;BME280;3145;42.726;23.342;2023-08-30T02:00:09;70756.34;;;-142.70;64.84
6224;BME280;3145;42.726;23.342;2023-08-30T02:02:37;70758.38;;;-142.70;64.84
6224;BME280;3145;42.726;23.342;2023-08-30T02:05:05;70746.28;;;-142.70;65.36
6224;BME280;3145;42.726;23.342;2023-08-30T02:07:37;70746.28;;;-142.70;65.51
6224;BME280;3145;42.726;23.342;2023-08-30T02:10:09;70740.25;;;-142.70;65.36
6224;BME280;3145;42.726;23.342;2023-08-30T02:12:39;70740.25;;;-142.70;65.27
6224;BME280;3145;42.726;23.342;2023-08-30T02:15:09;70740.25;;;-142.70;65.17
6224;BME280;3145;42.726;23.342;2023-08-30T02:17:38;70746.28;;;-142.70;65.30
6224;BME280;3145;42.726;23.342;2023-08-30T02:20:07;70742.25;;;-142.70;65.41
6224;BME280;3145;42.726;23.342;2023-08-30T02:22:34;70748.31;;;-142.70;66.02
6224;BME280;3145;42.726;23.342;2023-08-30T02:25:01;70750.31;;;-142.70;65.90
6224;BME280;3145;42.726;23.342;2023-08-30T02:27:30;70744.28;;;-142.70;66.00
6224;BME280;3145;42.726;23.342;2023-08-30T02:29:57;70740.25;;;-142.70;66.10
6224;BME280;3145;42.726;23.342;2023-08-30T02:32:23;70740.25;;;-142.70;65.80
6224;BME280;3145;42.726;23.342;2023-08-30T02:34:52;70736.22;;;-142.70;65.93
6224;BME280;3145;42.726;23.342;2023-08-30T02:37:19;70740.25;;;-142.70;65.86
6224;BME280;3145;42.726;23.342;2023-08-30T02:39:46;70748.31;;;-142.70;66.04
6224;BME280;3145;42.726;23.342;2023-08-30T02:42:13;70792.59;;;-142.70;66.72
6224;BME280;3145;42.726;23.342;2023-08-30T02:44:39;70808.72;;;-142.70;67.19
6224;BME280;3145;42.726;23.342;2023-08-30T02:47:06;70804.69;;;-142.70;67.46
6224;BME280;3145;42.726;23.342;2023-08-30T02:49:33;70812.75;;;-142.70;68.33
6224;BME280;3145;42.726;23.342;2023-08-30T02:52:01;70804.69;;;-142.70;68.63
6224;BME280;3145;42.726;23.342;2023-08-30T02:54:27;70800.66;;;-142.70;68.64
6224;BME280;3145;42.726;23.342;2023-08-30T02:56:53;70800.66;;;-142.70;68.41
6224;BME280;3145;42.726;23.342;2023-08-30T02:59:20;70808.72;;;-142.70;68.53
6224;BME280;3145;42.726;23.342;2023-08-30T03:01:47;70802.66;;;-142.70;68.36
6224;BME280;3145;42.726;23.342;2023-08-30T03:04:13;70802.66;;;-142.70;68.27
6224;BME280;3145;42.726;23.342;2023-08-30T03:06:40;70798.66;;;-142.70;68.36
6224;BME280;3145;42.726;23.342;2023-08-30T03:09:08;70804.69;;;-142.70;68.26
6224;BME280;3145;42.726;23.342;2023-08-30T03:11:35;70804.69;;;-142.70;68.26
6224;BME280;3145;42.726;23.342;2023-08-30T03:14:02;70814.75;;;-142.70;68.24
6224;BME280;3145;42.726;23.342;2023-08-30T03:16:29;70836.91;;;-142.70;68.65
6224;BME280;3145;42.726;23.342;2023-08-30T03:18:55;70873.16;;;-142.70;69.90
6224;BME280;3145;42.726;23.342;2023-08-30T03:21:22;70905.34;;;-142.70;71.22
6224;BME280;3145;42.726;23.342;2023-08-30T03:23:49;70925.50;;;-142.70;72.01
6224;BME280;3145;42.726;23.342;2023-08-30T03:26:17;70937.56;;;-142.70;72.87
6224;BME280;3145;42.726;23.342;2023-08-30T03:28:44;70929.53;;;-142.70;73.29
6224;BME280;3145;42.726;23.342;2023-08-30T03:31:12;70917.44;;;-142.70;73.46
6224;BME280;3145;42.726;23.342;2023-08-30T03:33:39;70913.41;;;-142.70;73.46
6224;BME280;3145;42.726;23.342;2023-08-30T03:36:07;70913.41;;;-142.70;73.20
6224;BME280;3145;42.726;23.342;2023-08-30T03:38:34;70913.41;;;-142.70;72.99
6224;BME280;3145;42.726;23.342;2023-08-30T03:41:02;70915.44;;;-142.70;73.26
6224;BME280;3145;42.726;23.342;2023-08-30T03:43:31;70913.41;;;-142.70;73.43
6224;BME280;3145;42.726;23.342;2023-08-30T03:45:58;70897.31;;;-142.70;72.92
6224;BME280;3145;42.726;23.342;2023-08-30T03:48:25;70885.22;;;-142.70;72.94
6224;BME280;3145;42.726;23.342;2023-08-30T03:50:51;70881.19;;;-142.70;72.53
6224;BME280;3145;42.726;23.342;2023-08-30T03:53:18;70881.19;;;-142.70;72.19
6224;BME280;3145;42.726;23.342;2023-08-30T03:55:45;70883.22;;;-142.70;71.90
6224;BME280;3145;42.726;23.342;2023-08-30T03:58:11;70877.16;;;-142.70;71.74
6224;BME280;3145;42.726;23.342;2023-08-30T04:00:40;70875.16;;;-142.70;71.62
6224;BME280;3145;42.726;23.342;2023-08-30T04:03:09;70869.13;;;-142.70;71.38
6224;BME280;3145;42.726;23.342;2023-08-30T04:05:36;70889.25;;;-142.70;71.53
6224;BME280;3145;42.726;23.342;2023-08-30T04:08:05;70885.22;;;-142.70;71.05
6224;BME280;3145;42.726;23.342;2023-08-30T04:10:34;70909.38;;;-142.70;71.25
6224;BME280;3145;42.726;23.342;2023-08-30T04:13:01;70921.47;;;-142.70;71.93
6224;BME280;3145;42.726;23.342;2023-08-30T04:15:28;70935.56;;;-142.70;72.47
6224;BME280;3145;42.726;23.342;2023-08-30T04:17:56;70977.84;;;-142.70;73.95
6224;BME280;3145;42.726;23.342;2023-08-30T04:20:23;71002.00;;;-142.70;74.87
6224;BME280;3145;42.726;23.342;2023-08-30T04:22:49;70997.97;;;-142.70;75.38
6224;BME280;3145;42.726;23.342;2023-08-30T04:25:16;70977.84;;;-142.70;75.28
6224;BME280;3145;42.726;23.342;2023-08-30T04:27:43;70963.75;;;-142.70;74.48
6224;BME280;3145;42.726;23.342;2023-08-30T04:30:11;70929.53;;;-142.70;74.25
6224;BME280;3145;42.726;23.342;2023-08-30T04:32:37;70881.19;;;-142.70;73.68
6224;BME280;3145;42.726;23.342;2023-08-30T04:35:07;70830.84;;;-142.70;73.54
6224;BME280;3145;42.726;23.342;2023-08-30T04:37:33;70794.63;;;-142.70;71.53
6224;BME280;3145;42.726;23.342;2023-08-30T04:40:00;70758.38;;;-142.70;69.41
6224;BME280;3145;42.726;23.342;2023-08-30T04:42:29;70728.16;;;-142.70;67.70
6224;BME280;3145;42.726;23.342;2023-08-30T04:44:55;70691.94;;;-142.70;66.53
6224;BME280;3145;42.726;23.342;2023-08-30T04:47:26;70655.69;;;-142.70;64.46
6224;BME280;3145;42.726;23.342;2023-08-30T04:49:52;70635.56;;;-142.70;63.19
6224;BME280;3145;42.726;23.342;2023-08-30T04:52:20;70655.69;;;-142.70;62.22
6224;BME280;3145;42.726;23.342;2023-08-30T04:54:47;70675.81;;;-142.70;61.87
6224;BME280;3145;42.726;23.342;2023-08-30T04:57:15;70691.94;;;-142.70;63.00
6224;BME280;3145;42.726;23.342;2023-08-30T04:59:42;70704.00;;;-142.70;63.36
6224;BME280;3145;42.726;23.342;2023-08-30T05:02:09;70710.06;;;-142.70;63.79
6224;BME280;3145;42.726;23.342;2023-08-30T05:04:35;70736.22;;;-142.70;63.40
6224;BME280;3145;42.726;23.342;2023-08-30T05:07:02;70750.31;;;-142.70;65.02
6224;BME280;3145;42.726;23.342;2023-08-30T05:09:31;70760.38;;;-142.70;64.00
6224;BME280;3145;42.726;23.342;2023-08-30T05:11:58;70768.44;;;-142.70;63.83
6224;BME280;3145;42.726;23.342;2023-08-30T05:14:25;70776.50;;;-142.70;65.11
6224;BME280;3145;42.726;23.342;2023-08-30T05:16:52;70772.47;;;-142.70;64.81
6224;BME280;3145;42.726;23.342;2023-08-30T05:19:19;70756.34;;;-142.70;64.69
6224;BME280;3145;42.726;23.342;2023-08-30T05:21:46;70748.31;;;-142.70;64.52
6224;BME280;3145;42.726;23.342;2023-08-30T05:24:16;70726.16;;;-142.70;64.11
6224;BME280;3145;42.726;23.342;2023-08-30T05:26:44;70687.91;;;-142.70;63.59
6224;BME280;3145;42.726;23.342;2023-08-30T05:29:12;70627.50;;;-142.70;62.33
6224;BME280;3145;42.726;23.342;2023-08-30T05:31:39;70555.03;;;-142.70;60.34
6224;BME280;3145;42.726;23.342;2023-08-30T05:34:05;70498.66;;;-142.70;57.93
6224;BME280;3145;42.726;23.342;2023-08-30T05:36:32;70450.31;;;-142.70;56.01
6224;BME280;3145;42.726;23.342;2023-08-30T05:38:59;70412.06;;;-142.70;52.33
6224;BME280;3145;42.726;23.342;2023-08-30T05:41:26;70365.78;;;-142.70;51.56
6224;BME280;3145;42.726;23.342;2023-08-30T05:43:54;70349.66;;;-142.70;49.17
6224;BME280;3145;42.726;23.342;2023-08-30T05:46:20;70357.72;;;-142.70;50.09
6224;BME280;3145;42.726;23.342;2023-08-30T05:48:47;70349.66;;;-142.70;50.69
6224;BME280;3145;42.726;23.342;2023-08-30T05:51:14;70357.72;;;-142.70;50.08
6224;BME280;3145;42.726;23.342;2023-08-30T05:53:40;70349.66;;;-142.70;49.76
6224;BME280;3145;42.726;23.342;2023-08-30T05:56:07;70317.47;;;-142.70;50.29
6224;BME280;3145;42.726;23.342;2023-08-30T05:58:34;70267.13;;;-142.70;49.38
6224;BME280;3145;42.726;23.342;2023-08-30T06:01:02;70224.84;;;-142.70;48.15
6224;BME280;3145;42.726;23.342;2023-08-30T06:03:29;70184.59;;;-142.70;45.51
6224;BME280;3145;42.726;23.342;2023-08-30T06:05:55;70172.50;;;-142.70;44.19
6224;BME280;3145;42.726;23.342;2023-08-30T06:08:22;70180.56;;;-142.70;44.39
6224;BME280;3145;42.726;23.342;2023-08-30T06:10:49;70176.53;;;-142.70;43.75
6224;BME280;3145;42.726;23.342;2023-08-30T06:13:16;70144.31;;;-142.70;44.37
6224;BME280;3145;42.726;23.342;2023-08-30T06:15:42;70168.47;;;-142.70;44.30
6224;BME280;3145;42.726;23.342;2023-08-30T06:18:11;70142.31;;;-142.70;44.65
6224;BME280;3145;42.726;23.342;2023-08-30T06:20:40;70089.97;;;-142.70;44.27
6224;BME280;3145;42.726;23.342;2023-08-30T06:23:07;70043.66;;;-142.70;43.48
6224;BME280;3145;42.726;23.342;2023-08-30T06:25:33;70021.53;;;-142.70;42.08
6224;BME280;3145;42.726;23.342;2023-08-30T06:28:00;70019.50;;;-142.70;41.00
6224;BME280;3145;42.726;23.342;2023-08-30T06:30:28;70035.63;;;-142.70;41.57
6224;BME280;3145;42.726;23.342;2023-08-30T06:32:56;69991.34;;;-142.70;41.80
6224;BME280;3145;42.726;23.342;2023-08-30T06:35:24;69955.09;;;-142.70;40.84
6224;BME280;3145;42.726;23.342;2023-08-30T06:37:51;69918.88;;;-142.70;40.56
6224;BME280;3145;42.726;23.342;2023-08-30T06:40:18;69866.53;;;-142.70;39.68
6224;BME280;3145;42.726;23.342;2023-08-30T06:42:45;69842.38;;;-142.70;39.31
6224;BME280;3145;42.726;23.342;2023-08-30T06:45:12;69846.41;;;-142.70;38.57
6224;BME280;3145;42.726;23.342;2023-08-30T06:47:39;69906.78;;;-142.70;38.38
6224;BME280;3145;42.726;23.342;2023-08-30T06:50:07;69975.22;;;-142.70;39.24
6224;BME280;3145;42.726;23.342;2023-08-30T06:52:36;69997.38;;;-142.70;39.97
6224;BME280;3145;42.726;23.342;2023-08-30T06:55:03;69932.94;;;-142.70;39.31
6224;BME280;3145;42.726;23.342;2023-08-30T06:57:30;69936.97;;;-142.70;38.94
6224;BME280;3145;42.726;23.342;2023-08-30T06:59:57;69926.91;;;-142.70;38.38
6224;BME280;3145;42.726;23.342;2023-08-30T07:02:25;69892.69;;;-142.70;39.03
6224;BME280;3145;42.726;23.342;2023-08-30T07:04:53;69814.19;;;-142.70;39.21
6224;BME280;3145;42.726;23.342;2023-08-30T07:07:19;69826.28;;;-142.70;37.55
6224;BME280;3145;42.726;23.342;2023-08-30T07:09:47;69880.63;;;-142.70;37.55
6224;BME280;3145;42.726;23.342;2023-08-30T07:12:14;69910.81;;;-142.70;38.26
6224;BME280;3145;42.726;23.342;2023-08-30T07:14:41;69886.66;;;-142.70;37.48
6224;BME280;3145;42.726;23.342;2023-08-30T07:17:08;69983.28;;;-142.70;39.07
6224;BME280;3145;42.726;23.342;2023-08-30T07:19:35;69963.16;;;-142.70;38.05
6224;BME280;3145;42.726;23.342;2023-08-30T07:22:01;69939.00;;;-142.70;38.92
6224;BME280;3145;42.726;23.342;2023-08-30T07:24:29;69872.56;;;-142.70;37.87
6224;BME280;3145;42.726;23.342;2023-08-30T07:26:57;69822.25;;;-142.70;37.85
6224;BME280;3145;42.726;23.342;2023-08-30T07:29:24;69830.28;;;-142.70;38.18
6224;BME280;3145;42.726;23.342;2023-08-30T07:31:51;69777.97;;;-142.70;37.52
6224;BME280;3145;42.726;23.342;2023-08-30T07:34:18;69749.78;;;-142.70;36.21
6224;BME280;3145;42.726;23.342;2023-08-30T07:36:45;69757.84;;;-142.70;36.61
6224;BME280;3145;42.726;23.342;2023-08-30T07:39:12;69729.66;;;-142.70;36.13
6224;BME280;3145;42.726;23.342;2023-08-30T07:41:39;69679.31;;;-142.70;35.73
6224;BME280;3145;42.726;23.342;2023-08-30T07:44:07;69649.13;;;-142.70;34.97
6224;BME280;3145;42.726;23.342;2023-08-30T07:46:34;69624.97;;;-142.70;35.55
6224;BME280;3145;42.726;23.342;2023-08-30T07:49:01;69608.88;;;-142.70;34.92
6224;BME280;3145;42.726;23.342;2023-08-30T07:51:28;69620.97;;;-142.70;35.02
6224;BME280;3145;42.726;23.342;2023-08-30T07:53:54;69653.16;;;-142.70;35.28
6224;BME280;3145;42.726;23.342;2023-08-30T07:56:21;69681.34;;;-142.70;34.75
6224;BME280;3145;42.726;23.342;2023-08-30T07:58:48;69661.22;;;-142.70;35.56
6224;BME280;3145;42.726;23.342;2023-08-30T08:01:16;69637.06;;;-142.70;35.11
6224;BME280;3145;42.726;23.342;2023-08-30T08:03:42;69637.06;;;-142.70;33.97
6224;BME280;3145;42.726;23.342;2023-08-30T08:06:09;69635.03;;;-142.70;34.81
6224;BME280;3145;42.726;23.342;2023-08-30T08:08:36;69604.84;;;-142.70;35.18
6224;BME280;3145;42.726;23.342;2023-08-30T08:11:02;69562.59;;;-142.70;34.83
6224;BME280;3145;42.726;23.342;2023-08-30T08:13:30;69548.50;;;-142.70;33.90
6224;BME280;3145;42.726;23.342;2023-08-30T08:15:57;69528.38;;;-142.70;33.22
6224;BME280;3145;42.726;23.342;2023-08-30T08:18:25;69558.56;;;-142.70;32.41
6224;BME280;3145;42.726;23.342;2023-08-30T08:20:52;69604.84;;;-142.70;33.66
6224;BME280;3145;42.726;23.342;2023-08-30T08:23:19;69600.84;;;-142.70;32.87
6224;BME280;3145;42.726;23.342;2023-08-30T08:25:45;69562.59;;;-142.70;32.76
6224;BME280;3145;42.726;23.342;2023-08-30T08:28:12;69572.66;;;-142.70;32.95
6224;BME280;3145;42.726;23.342;2023-08-30T08:30:39;69548.50;;;-142.70;32.45
6224;BME280;3145;42.726;23.342;2023-08-30T08:33:07;69572.66;;;-142.70;31.83
6224;BME280;3145;42.726;23.342;2023-08-30T08:35:35;69548.50;;;-142.70;31.55
6224;BME280;3145;42.726;23.342;2023-08-30T08:38:02;69536.41;;;-142.70;31.73
6224;BME280;3145;42.726;23.342;2023-08-30T08:40:29;69540.44;;;-142.70;31.30
6224;BME280;3145;42.726;23.342;2023-08-30T08:42:56;69504.22;;;-142.70;31.16
6224;BME280;3145;42.726;23.342;2023-08-30T08:45:23;69492.13;;;-142.70;30.82
6224;BME280;3145;42.726;23.342;2023-08-30T08:47:49;69504.22;;;-142.70;31.57
6224;BME280;3145;42.726;23.342;2023-08-30T08:50:17;69492.13;;;-142.70;31.50
6224;BME280;3145;42.726;23.342;2023-08-30T08:52:46;69482.06;;;-142.70;30.40
6224;BME280;3145;42.726;23.342;2023-08-30T08:55:13;69566.63;;;-142.70;32.03
6224;BME280;3145;42.726;23.342;2023-08-30T08:57:41;69536.41;;;-142.70;31.82
6224;BME280;3145;42.726;23.342;2023-08-30T09:00:10;69510.25;;;-142.70;31.62
6224;BME280;3145;42.726;23.342;2023-08-30T09:02:38;69504.22;;;-142.70;31.41
6224;BME280;3145;42.726;23.342;2023-08-30T09:05:07;69518.31;;;-142.70;31.20
6224;BME280;3145;42.726;23.342;2023-08-30T09:07:34;69492.13;;;-142.70;30.42
6224;BME280;3145;42.726;23.342;2023-08-30T09:10:03;69480.06;;;-142.70;30.95
6224;BME280;3145;42.726;23.342;2023-08-30T09:12:32;69468.00;;;-142.70;31.04
6224;BME280;3145;42.726;23.342;2023-08-30T09:14:59;69435.78;;;-142.70;31.00
6224;BME280;3145;42.726;23.342;2023-08-30T09:17:35;69421.69;;;-142.70;30.69
6224;BME280;3145;42.726;23.342;2023-08-30T09:20:06;69429.75;;;-142.70;29.44
6224;BME280;3145;42.726;23.342;2023-08-30T09:22:37;69516.28;;;-142.70;31.28
6224;BME280;3145;42.726;23.342;2023-08-30T09:25:06;69474.03;;;-142.70;30.89
6224;BME280;3145;42.726;23.342;2023-08-30T09:27:35;69459.94;;;-142.70;30.66
6224;BME280;3145;42.726;23.342;2023-08-30T09:30:03;69528.38;;;-142.70;30.68
6224;BME280;3145;42.726;23.342;2023-08-30T09:32:30;69540.44;;;-142.70;31.76
6224;BME280;3145;42.726;23.342;2023-08-30T09:34:57;69500.19;;;-142.70;31.42
6224;BME280;3145;42.726;23.342;2023-08-30T09:37:24;69538.44;;;-142.70;31.46
6224;BME280;3145;42.726;23.342;2023-08-30T09:39:52;69506.22;;;-142.70;31.07
6224;BME280;3145;42.726;23.342;2023-08-30T09:42:20;69534.41;;;-142.70;30.55
6224;BME280;3145;42.726;23.342;2023-08-30T09:44:47;69520.31;;;-142.70;32.29
6224;BME280;3145;42.726;23.342;2023-08-30T09:47:14;69508.25;;;-142.70;31.64
6224;BME280;3145;42.726;23.342;2023-08-30T09:49:43;69451.88;;;-142.70;31.08
6224;BME280;3145;42.726;23.342;2023-08-30T09:52:12;69431.75;;;-142.70;31.14
6224;BME280;3145;42.726;23.342;2023-08-30T09:54:41;69381.44;;;-142.70;31.19
6224;BME280;3145;42.726;23.342;2023-08-30T09:57:09;69351.25;;;-142.70;30.38
6224;BME280;3145;42.726;23.342;2023-08-30T09:59:37;69375.41;;;-142.70;29.99
6224;BME280;3145;42.726;23.342;2023-08-30T10:02:05;69383.47;;;-142.70;29.89
6224;BME280;3145;42.726;23.342;2023-08-30T10:04:32;69379.44;;;-142.70;30.60
6224;BME280;3145;42.726;23.342;2023-08-30T10:06:59;69339.19;;;-142.70;30.49
6224;BME280;3145;42.726;23.342;2023-08-30T10:09:29;69395.53;;;-142.70;29.31
6224;BME280;3145;42.726;23.342;2023-08-30T10:11:58;69405.59;;;-142.70;31.13
6224;BME280;3145;42.726;23.342;2023-08-30T10:14:26;69407.59;;;-142.70;30.92
6224;BME280;3145;42.726;23.342;2023-08-30T10:17:01;69367.34;;;-142.70;30.00
6224;BME280;3145;42.726;23.342;2023-08-30T10:19:28;69335.16;;;-142.70;30.10
6224;BME280;3145;42.726;23.342;2023-08-30T10:22:00;69383.47;;;-142.70;29.40
6224;BME280;3145;42.726;23.342;2023-08-30T10:24:30;69367.34;;;-142.70;30.50
6224;BME280;3145;42.726;23.342;2023-08-30T10:26:59;69355.28;;;-142.70;30.37
6224;BME280;3145;42.726;23.342;2023-08-30T10:29:27;69337.16;;;-142.70;29.77
6224;BME280;3145;42.726;23.342;2023-08-30T10:32:01;69333.13;;;-142.70;30.44
6224;BME280;3145;42.726;23.342;2023-08-30T10:34:32;69343.19;;;-142.70;29.98
6224;BME280;3145;42.726;23.342;2023-08-30T10:37:00;69357.28;;;-142.70;29.78
6224;BME280;3145;42.726;23.342;2023-08-30T10:39:33;69331.13;;;-142.70;29.59
6224;BME280;3145;42.726;23.342;2023-08-30T10:42:06;69373.38;;;-142.70;29.85
6224;BME280;3145;42.726;23.342;2023-08-30T10:44:33;69387.47;;;-142.70;30.33
6224;BME280;3145;42.726;23.342;2023-08-30T10:47:03;69355.28;;;-142.70;30.16
6224;BME280;3145;42.726;23.342;2023-08-30T10:49:39;69323.06;;;-142.70;30.62
6224;BME280;3145;42.726;23.342;2023-08-30T10:52:11;69294.91;;;-142.70;30.20
6224;BME280;3145;42.726;23.342;2023-08-30T10:54:38;69369.38;;;-142.70;30.09
6224;BME280;3145;42.726;23.342;2023-08-30T10:57:05;69419.69;;;-142.70;30.22
6224;BME280;3145;42.726;23.342;2023-08-30T10:59:32;69455.91;;;-142.70;30.52
6224;BME280;3145;42.726;23.342;2023-08-30T11:02:02;69472.00;;;-142.70;30.83
6224;BME280;3145;42.726;23.342;2023-08-30T11:04:30;69447.88;;;-142.70;31.18
6224;BME280;3145;42.726;23.342;2023-08-30T11:06:57;69439.81;;;-142.70;29.40
6224;BME280;3145;42.726;23.342;2023-08-30T11:09:24;69465.97;;;-142.70;29.49
6224;BME280;3145;42.726;23.342;2023-08-30T11:11:52;69564.59;;;-142.70;30.87
6224;BME280;3145;42.726;23.342;2023-08-30T11:14:19;69574.66;;;-142.70;31.27
6224;BME280;3145;42.726;23.342;2023-08-30T11:16:45;69604.84;;;-142.70;30.97
6224;BME280;3145;42.726;23.342;2023-08-30T11:19:13;69608.88;;;-142.70;30.80
6224;BME280;3145;42.726;23.342;2023-08-30T11:21:44;69659.19;;;-142.70;31.76
6224;BME280;3145;42.726;23.342;2023-08-30T11:24:11;69645.13;;;-142.70;33.19
6224;BME280;3145;42.726;23.342;2023-08-30T11:26:38;69637.06;;;-142.70;32.72
6224;BME280;3145;42.726;23.342;2023-08-30T11:29:05;69606.88;;;-142.70;32.71
6224;BME280;3145;42.726;23.342;2023-08-30T11:31:32;69572.66;;;-142.70;32.54
6224;BME280;3145;42.726;23.342;2023-08-30T11:33:59;69560.56;;;-142.70;31.42
6224;BME280;3145;42.726;23.342;2023-08-30T11:36:29;69540.44;;;-142.70;30.78
6224;BME280;3145;42.726;23.342;2023-08-30T11:38:56;69536.41;;;-142.70;31.81
6224;BME280;3145;42.726;23.342;2023-08-30T11:41:24;69548.50;;;-142.70;30.32
6224;BME280;3145;42.726;23.342;2023-08-30T11:43:51;69536.41;;;-142.70;31.62
6224;BME280;3145;42.726;23.342;2023-08-30T11:46:18;69572.66;;;-142.70;31.18
6224;BME280;3145;42.726;23.342;2023-08-30T11:48:46;69566.63;;;-142.70;30.17
6224;BME280;3145;42.726;23.342;2023-08-30T11:51:14;69548.50;;;-142.70;28.18
6224;BME280;3145;42.726;23.342;2023-08-30T11:53:42;69504.22;;;-142.70;27.49
6224;BME280;3145;42.726;23.342;2023-08-30T11:56:10;69457.94;;;-142.70;26.45
6224;BME280;3145;42.726;23.342;2023-08-30T11:58:38;69407.59;;;-142.70;26.92
6224;BME280;3145;42.726;23.342;2023-08-30T12:01:05;69363.34;;;-142.70;27.35
6224;BME280;3145;42.726;23.342;2023-08-30T12:03:32;69329.13;;;-142.70;27.00
6224;BME280;3145;42.726;23.342;2023-08-30T12:05:59;69290.88;;;-142.70;26.24
6224;BME280;3145;42.726;23.342;2023-08-30T12:08:28;69282.81;;;-142.70;26.04
6224;BME280;3145;42.726;23.342;2023-08-30T12:10:57;69274.78;;;-142.70;25.76
6224;BME280;3145;42.726;23.342;2023-08-30T12:13:24;69274.78;;;-142.70;25.56
6224;BME280;3145;42.726;23.342;2023-08-30T12:15:51;69296.91;;;-142.70;26.02
6224;BME280;3145;42.726;23.342;2023-08-30T12:18:21;69290.88;;;-142.70;26.09
6224;BME280;3145;42.726;23.342;2023-08-30T12:20:52;69298.94;;;-142.70;26.41
6224;BME280;3145;42.726;23.342;2023-08-30T12:23:20;69302.94;;;-142.70;25.86
6224;BME280;3145;42.726;23.342;2023-08-30T12:25:58;69315.03;;;-142.70;26.14
6224;BME280;3145;42.726;23.342;2023-08-30T12:28:26;69315.03;;;-142.70;26.22
6224;BME280;3145;42.726;23.342;2023-08-30T12:30:53;69319.06;;;-142.70;25.64
6224;BME280;3145;42.726;23.342;2023-08-30T12:33:20;69311.00;;;-142.70;25.36
6224;BME280;3145;42.726;23.342;2023-08-30T12:35:47;69335.16;;;-142.70;24.84
6224;BME280;3145;42.726;23.342;2023-08-30T12:38:13;69327.09;;;-142.70;25.18
6224;BME280;3145;42.726;23.342;2023-08-30T12:40:43;69315.03;;;-142.70;25.33
6224;BME280;3145;42.726;23.342;2023-08-30T12:43:11;69282.81;;;-142.70;25.52
6224;BME280;3145;42.726;23.342;2023-08-30T12:45:38;69250.63;;;-142.70;25.21
6224;BME280;3145;42.726;23.342;2023-08-30T12:48:06;69258.69;;;-142.70;24.95
6224;BME280;3145;42.726;23.342;2023-08-30T12:50:32;69234.53;;;-142.70;24.14
6224;BME280;3145;42.726;23.342;2023-08-30T12:52:59;69250.63;;;-142.70;24.27